Time;durP1;ratioP1;P1;durP2;ratioP2;P2;SDS_P1;SDS_P2;PMS_P1;PMS_P2;Temp;Humidity;BMP_temperature;BMP_pressure;BME280_temperature;BME280_humidity;BME280_pressure;Samples;Min_cycle;Max_cycle;Signal;HPM_P1;HPM_P2
2023/09/02 00:00:53;;;;;;;2.20;1.52;;;;;;;;;;5049751;28;20043;-80
2023/09/02 00:03:19;;;;;;;1.60;1.48;;;;;;;;;;5045437;28;20033;-80
2023/09/02 00:05:44;;;;;;;2.25;1.45;;;;;;;;;;5052782;28;20129;-79
2023/09/02 00:08:09;;;;;;;2.00;1.33;;;;;;;;;;5031549;28;20041;-80
2023/09/02 00:10:35;;;;;;;1.80;1.27;;;;;;;;;;5048469;28;20051;-79
2023/09/02 00:13:01;;;;;;;2.00;1.50;;;;;;;;;;5050095;28;20091;-79
2023/09/02 00:15:26;;;;;;;1.40;1.30;;;;;;;;;;5041078;28;20029;-79
2023/09/02 00:17:51;;;;;;;1.40;1.30;;;;;;;;;;5049113;28;20039;-78
2023/09/02 00:20:18;;;;;;;2.10;1.55;;;;;;;;;;5047062;28;20086;-81
2023/09/02 00:22:43;;;;;;;1.48;1.38;;;;;;;;;;5061575;28;20034;-87
2023/09/02 00:25:08;;;;;;;1.40;1.30;;;;;;;;;;5048931;28;20101;-83
2023/09/02 00:27:34;;;;;;;2.20;1.40;;;;;;;;;;5046420;28;20090;-84
2023/09/02 00:29:59;;;;;;;1.60;1.50;;;;;;;;;;5055422;28;20394;-85
2023/09/02 00:32:24;;;;;;;1.33;1.17;;;;;;;;;;5043330;28;20405;-82
2023/09/02 00:34:50;;;;;;;2.45;1.55;;;;;;;;;;5054117;28;20247;-83
2023/09/02 00:37:15;;;;;;;2.63;1.40;;;;;;;;;;5068609;28;20024;-82
2023/09/02 00:39:40;;;;;;;2.35;1.42;;;;;;;;;;5069940;28;20029;-82
2023/09/02 00:42:09;;;;;;;2.17;1.40;;;;;;;;;;5043603;28;20380;-81
2023/09/02 00:44:37;;;;;;;1.77;1.30;;;;;;;;;;5057877;28;20029;-82
2023/09/02 00:47:04;;;;;;;1.45;1.33;;;;;;;;;;5027729;28;20076;-83
2023/09/02 00:49:31;;;;;;;2.97;1.50;;;;;;;;;;5061929;28;20044;-85
2023/09/02 00:51:56;;;;;;;1.40;1.15;;;;;;;;;;5069500;28;20028;-82
2023/09/02 00:54:21;;;;;;;1.48;1.25;;;;;;;;;;5058688;28;20119;-83
2023/09/02 00:56:49;;;;;;;2.35;1.50;;;;;;;;;;5057983;28;20119;-83
2023/09/02 00:59:15;;;;;;;3.38;1.98;;;;;;;;;;5062662;28;20034;-84
2023/09/02 01:01:43;;;;;;;5.60;1.50;;;;;;;;;;5045524;28;20031;-85
2023/09/02 01:04:09;;;;;;;1.63;1.15;;;;;;;;;;5067193;28;20017;-86
2023/09/02 01:06:35;;;;;;;1.33;1.15;;;;;;;;;;5049139;28;20039;-82
2023/09/02 01:09:00;;;;;;;3.75;2.13;;;;;;;;;;5042521;28;20033;-83
2023/09/02 01:11:26;;;;;;;1.42;1.30;;;;;;;;;;5041271;28;20024;-83
2023/09/02 01:13:52;;;;;;;1.75;1.30;;;;;;;;;;5065597;28;20025;-85
2023/09/02 01:16:17;;;;;;;1.40;1.30;;;;;;;;;;5059903;28;20038;-84
2023/09/02 01:18:43;;;;;;;1.55;1.45;;;;;;;;;;5059069;28;20107;-84
2023/09/02 01:21:27;;;;;;;3.58;1.73;;;;;;;;;;5059022;28;20040;-82
2023/09/02 01:24:29;;;;;;;2.88;1.58;;;;;;;;;;5063819;28;20387;-83
2023/09/02 01:27:16;;;;;;;1.48;1.20;;;;;;;;;;5038741;28;20090;-83
2023/09/02 01:29:51;;;;;;;4.55;1.88;;;;;;;;;;5042268;28;20124;-83
2023/09/02 01:32:17;;;;;;;1.73;1.55;;;;;;;;;;5038812;28;20056;-82
2023/09/02 01:34:44;;;;;;;3.22;1.40;;;;;;;;;;5069423;28;20104;-83
2023/09/02 01:37:10;;;;;;;3.13;1.77;;;;;;;;;;5050028;28;20486;-82
2023/09/02 01:39:37;;;;;;;1.60;1.50;;;;;;;;;;5059324;28;20100;-83
2023/09/02 01:42:06;;;;;;;1.30;1.20;;;;;;;;;;5065230;28;20550;-81
2023/09/02 01:44:32;;;;;;;2.45;1.60;;;;;;;;;;5041398;28;20472;-82
2023/09/02 01:46:57;;;;;;;1.40;1.30;;;;;;;;;;5060518;28;20093;-82
2023/09/02 01:49:23;;;;;;;1.33;1.10;;;;;;;;;;5059348;28;20029;-84
2023/09/02 01:51:49;;;;;;;1.55;1.45;;;;;;;;;;5056780;28;20029;-82
2023/09/02 01:54:15;;;;;;;3.03;1.30;;;;;;;;;;5060531;28;20079;-83
2023/09/02 01:56:41;;;;;;;3.35;1.70;;;;;;;;;;5065726;28;20028;-84
2023/09/02 01:59:06;;;;;;;7.07;1.52;;;;;;;;;;5041726;28;20032;-82
2023/09/02 02:01:34;;;;;;;1.42;1.23;;;;;;;;;;5045251;28;20025;-83
2023/09/02 02:04:04;;;;;;;1.02;0.95;;;;;;;;;;5054566;28;20033;-82
2023/09/02 02:06:31;;;;;;;2.13;1.52;;;;;;;;;;5025713;28;20029;-82
2023/09/02 02:09:12;;;;;;;2.38;1.60;;;;;;;;;;5028494;28;20120;-81
2023/09/02 02:11:38;;;;;;;1.58;1.38;;;;;;;;;;5056468;28;20108;-82
2023/09/02 02:14:05;;;;;;;2.72;1.50;;;;;;;;;;5040673;28;20067;-81
2023/09/02 02:16:31;;;;;;;4.45;1.40;;;;;;;;;;5046609;28;20132;-82
2023/09/02 02:18:58;;;;;;;2.13;1.60;;;;;;;;;;5036413;28;20492;-82
2023/09/02 02:21:23;;;;;;;1.83;1.52;;;;;;;;;;5044865;28;20033;-81
2023/09/02 02:23:48;;;;;;;1.92;1.73;;;;;;;;;;5016669;28;20025;-82
2023/09/02 02:26:15;;;;;;;2.60;1.50;;;;;;;;;;5035560;28;20037;-82
2023/09/02 02:28:41;;;;;;;3.72;1.60;;;;;;;;;;5040563;28;20025;-82
2023/09/02 02:31:07;;;;;;;3.67;1.55;;;;;;;;;;5033812;28;20494;-82
2023/09/02 02:33:32;;;;;;;1.45;1.17;;;;;;;;;;5028177;28;20029;-83
2023/09/02 02:35:58;;;;;;;1.95;1.50;;;;;;;;;;5049493;28;20053;-83
2023/09/02 02:38:23;;;;;;;1.83;1.40;;;;;;;;;;5056064;28;20025;-82
2023/09/02 02:40:48;;;;;;;1.98;1.50;;;;;;;;;;5065145;28;20090;-82
2023/09/02 02:43:14;;;;;;;2.35;1.58;;;;;;;;;;5059172;28;20044;-84
2023/09/02 02:45:41;;;;;;;2.25;1.50;;;;;;;;;;5061033;28;20070;-84
2023/09/02 02:48:07;;;;;;;2.28;1.23;;;;;;;;;;5046008;28;20032;-84
2023/09/02 02:50:36;;;;;;;2.25;1.42;;;;;;;;;;5037614;28;20438;-83
2023/09/02 02:53:01;;;;;;;2.22;1.65;;;;;;;;;;5040953;28;20379;-84
2023/09/02 02:55:26;;;;;;;1.38;1.27;;;;;;;;;;5050972;28;20025;-83
2023/09/02 02:57:52;;;;;;;1.80;1.70;;;;;;;;;;5049316;28;20529;-83
2023/09/02 03:00:17;;;;;;;2.00;1.52;;;;;;;;;;5038229;28;20553;-84
2023/09/02 03:02:42;;;;;;;2.58;1.60;;;;;;;;;;5049235;28;20094;-83
2023/09/02 03:05:09;;;;;;;3.45;1.70;;;;;;;;;;5046952;28;20033;-82
2023/09/02 03:07:35;;;;;;;2.63;1.60;;;;;;;;;;5042562;28;20067;-80
2023/09/02 03:10:00;;;;;;;2.80;1.65;;;;;;;;;;5044559;28;20020;-84
2023/09/02 03:12:25;;;;;;;16.15;1.95;;;;;;;;;;5037297;28;20054;-84
2023/09/02 03:14:50;;;;;;;1.88;1.73;;;;;;;;;;5024336;28;20025;-83
2023/09/02 03:17:20;;;;;;;3.65;1.75;;;;;;;;;;5045625;28;20048;-83
2023/09/02 03:19:49;;;;;;;5.78;2.30;;;;;;;;;;5049198;28;20021;-84
2023/09/02 03:22:14;;;;;;;4.03;1.67;;;;;;;;;;5036925;28;20387;-84
2023/09/02 03:24:39;;;;;;;2.58;1.40;;;;;;;;;;5055450;28;20464;-83
2023/09/02 03:27:05;;;;;;;2.42;1.73;;;;;;;;;;5046073;28;20041;-84
2023/09/02 03:29:30;;;;;;;2.47;1.58;;;;;;;;;;5059223;28;20025;-82
2023/09/02 03:31:55;;;;;;;2.50;1.73;;;;;;;;;;5061120;28;20037;-84
2023/09/02 03:34:21;;;;;;;1.85;1.58;;;;;;;;;;5064284;28;20028;-82
2023/09/02 03:36:46;;;;;;;2.25;1.77;;;;;;;;;;5065630;28;20029;-82
2023/09/02 03:39:11;;;;;;;3.47;1.75;;;;;;;;;;5061578;28;20021;-82
2023/09/02 03:41:37;;;;;;;1.15;1.05;;;;;;;;;;5063996;28;20098;-83
2023/09/02 03:44:03;;;;;;;1.70;1.33;;;;;;;;;;5057065;28;20020;-83
2023/09/02 03:46:29;;;;;;;3.08;1.50;;;;;;;;;;5044438;28;20043;-84
2023/09/02 03:48:54;;;;;;;2.05;1.58;;;;;;;;;;5046431;28;20028;-83
2023/09/02 03:51:20;;;;;;;1.80;1.33;;;;;;;;;;5049319;28;20390;-81
2023/09/02 03:53:45;;;;;;;1.83;1.63;;;;;;;;;;5058707;28;20032;-82
2023/09/02 03:56:10;;;;;;;1.98;1.77;;;;;;;;;;5044827;28;20036;-82
2023/09/02 03:58:36;;;;;;;2.05;1.50;;;;;;;;;;5065029;28;20033;-82
2023/09/02 04:01:03;;;;;;;1.75;1.42;;;;;;;;;;5063349;28;20032;-84
2023/09/02 04:03:29;;;;;;;2.17;1.50;;;;;;;;;;5057873;28;20028;-83
2023/09/02 04:05:54;;;;;;;2.13;1.55;;;;;;;;;;5046108;28;20076;-82
2023/09/02 04:08:23;;;;;;;2.33;1.77;;;;;;;;;;5059237;28;20028;-82
2023/09/02 04:10:53;;;;;;;2.53;1.52;;;;;;;;;;5051256;28;20030;-83
2023/09/02 04:13:23;;;;;;;2.33;1.30;;;;;;;;;;5038850;28;20548;-82
2023/09/02 04:15:48;;;;;;;2.10;1.60;;;;;;;;;;5054379;28;20025;-82
2023/09/02 04:18:14;;;;;;;6.18;1.75;;;;;;;;;;5051011;28;20056;-82
2023/09/02 04:20:40;;;;;;;1.88;1.73;;;;;;;;;;5032558;28;20053;-83
2023/09/02 04:23:06;;;;;;;2.08;1.27;;;;;;;;;;5061254;28;20041;-84
2023/09/02 04:25:31;;;;;;;1.80;1.48;;;;;;;;;;5059583;28;20060;-82
2023/09/02 04:27:57;;;;;;;2.47;1.55;;;;;;;;;;5042817;28;20028;-84
2023/09/02 04:30:24;;;;;;;2.28;1.70;;;;;;;;;;5057485;28;20681;-84
2023/09/02 04:32:49;;;;;;;1.73;1.60;;;;;;;;;;5036819;28;20026;-82
2023/09/02 04:35:15;;;;;;;1.77;1.67;;;;;;;;;;5035118;28;22254;-82
2023/09/02 04:37:41;;;;;;;1.67;1.23;;;;;;;;;;5037691;28;20470;-83
2023/09/02 04:40:07;;;;;;;3.72;1.52;;;;;;;;;;5052503;28;20111;-83
2023/09/02 04:42:32;;;;;;;2.10;1.50;;;;;;;;;;5040708;28;20029;-82
2023/09/02 04:44:58;;;;;;;3.08;1.73;;;;;;;;;;5037614;28;20032;-83
2023/09/02 04:47:23;;;;;;;3.00;1.73;;;;;;;;;;5042912;28;20028;-83
2023/09/02 04:49:49;;;;;;;1.67;1.58;;;;;;;;;;5040548;28;20108;-82
2023/09/02 04:52:15;;;;;;;1.80;1.45;;;;;;;;;;5040529;28;20055;-82
2023/09/02 04:54:44;;;;;;;2.08;1.40;;;;;;;;;;5040740;28;20566;-84
2023/09/02 04:57:13;;;;;;;1.83;1.63;;;;;;;;;;5056445;28;20097;-87
2023/09/02 04:59:38;;;;;;;2.42;1.30;;;;;;;;;;5039548;28;20056;-84
2023/09/02 05:02:04;;;;;;;3.20;1.92;;;;;;;;;;5043522;28;20048;-84
2023/09/02 05:04:30;;;;;;;3.00;1.60;;;;;;;;;;5061573;28;20033;-84
2023/09/02 05:06:59;;;;;;;5.70;1.65;;;;;;;;;;5061326;28;20032;-83
2023/09/02 05:09:26;;;;;;;2.08;1.48;;;;;;;;;;5035552;28;20063;-84
2023/09/02 05:11:51;;;;;;;1.90;1.23;;;;;;;;;;5042461;28;20025;-83
2023/09/02 05:14:16;;;;;;;2.22;1.70;;;;;;;;;;5036049;28;20025;-83
2023/09/02 05:16:42;;;;;;;2.78;1.63;;;;;;;;;;5058724;28;20211;-83
2023/09/02 05:19:07;;;;;;;1.65;1.25;;;;;;;;;;5052804;28;20478;-84
2023/09/02 05:21:32;;;;;;;2.42;1.70;;;;;;;;;;5041919;28;20025;-83
2023/09/02 05:23:58;;;;;;;1.60;1.50;;;;;;;;;;5054634;28;20027;-84
2023/09/02 05:26:23;;;;;;;1.48;1.33;;;;;;;;;;5033230;28;20036;-84
2023/09/02 05:28:48;;;;;;;2.33;1.63;;;;;;;;;;5036441;28;20013;-84
2023/09/02 05:31:14;;;;;;;3.05;2.05;;;;;;;;;;5038512;28;20025;-84
2023/09/02 05:33:39;;;;;;;5.57;1.83;;;;;;;;;;5055794;28;20037;-83
2023/09/02 05:36:05;;;;;;;4.25;2.28;;;;;;;;;;5035145;28;21342;-84
2023/09/02 05:38:30;;;;;;;4.30;2.10;;;;;;;;;;5036706;28;20021;-84
2023/09/02 05:40:55;;;;;;;2.75;1.85;;;;;;;;;;5036017;28;20151;-84
2023/09/02 05:43:24;;;;;;;3.58;2.35;;;;;;;;;;5038586;28;20539;-84
2023/09/02 05:45:49;;;;;;;3.78;2.30;;;;;;;;;;5044629;28;20024;-84
2023/09/02 05:48:16;;;;;;;6.63;1.92;;;;;;;;;;5054788;28;20549;-83
2023/09/02 05:50:42;;;;;;;2.20;2.00;;;;;;;;;;5038546;28;20036;-83
2023/09/02 05:53:07;;;;;;;3.53;2.03;;;;;;;;;;5036650;28;20086;-83
2023/09/02 05:55:33;;;;;;;2.70;1.88;;;;;;;;;;5038127;28;20022;-82
2023/09/02 05:57:58;;;;;;;8.82;2.65;;;;;;;;;;5040954;28;20398;-83
2023/09/02 06:00:24;;;;;;;2.88;2.22;;;;;;;;;;5042867;28;20017;-83
2023/09/02 06:02:49;;;;;;;4.30;2.53;;;;;;;;;;5044303;28;20028;-84
2023/09/02 06:05:14;;;;;;;3.58;2.50;;;;;;;;;;5036295;28;20041;-83
2023/09/02 06:07:40;;;;;;;5.20;2.17;;;;;;;;;;5040237;28;20032;-84
2023/09/02 06:10:05;;;;;;;3.35;2.33;;;;;;;;;;5042968;28;20078;-83
2023/09/02 06:12:30;;;;;;;2.67;1.90;;;;;;;;;;5038959;28;20022;-83
2023/09/02 06:14:56;;;;;;;2.42;1.90;;;;;;;;;;5051786;28;20075;-84
2023/09/02 06:17:21;;;;;;;2.78;2.05;;;;;;;;;;5048662;28;20017;-84
2023/09/02 06:19:47;;;;;;;3.92;2.05;;;;;;;;;;5058671;28;20044;-84
2023/09/02 06:22:12;;;;;;;3.78;2.33;;;;;;;;;;5034718;28;20047;-83
2023/09/02 06:24:38;;;;;;;6.45;2.03;;;;;;;;;;5037990;28;20156;-84
2023/09/02 06:27:03;;;;;;;3.38;2.00;;;;;;;;;;5038395;28;20028;-84
2023/09/02 06:29:32;;;;;;;4.38;2.08;;;;;;;;;;5040201;28;20043;-84
2023/09/02 06:31:58;;;;;;;3.47;1.90;;;;;;;;;;5055691;28;20113;-84
2023/09/02 06:34:24;;;;;;;1.70;1.52;;;;;;;;;;5054770;28;20513;-84
2023/09/02 06:36:49;;;;;;;1.88;1.60;;;;;;;;;;5058671;28;20024;-84
2023/09/02 06:39:14;;;;;;;2.17;1.65;;;;;;;;;;5052619;28;20070;-84
2023/09/02 06:41:39;;;;;;;3.28;1.80;;;;;;;;;;5037063;28;20552;-85
2023/09/02 06:44:05;;;;;;;2.63;1.75;;;;;;;;;;5056273;28;20123;-85
2023/09/02 06:46:33;;;;;;;1.95;1.52;;;;;;;;;;5042662;28;20104;-85
2023/09/02 06:48:59;;;;;;;1.75;1.48;;;;;;;;;;5057662;28;20029;-85
2023/09/02 06:51:24;;;;;;;4.20;1.98;;;;;;;;;;5050951;28;20033;-85
2023/09/02 06:53:50;;;;;;;1.48;1.30;;;;;;;;;;5040573;28;20020;-85
2023/09/02 06:56:15;;;;;;;2.85;1.50;;;;;;;;;;5057689;28;20032;-84
2023/09/02 06:58:42;;;;;;;2.90;1.50;;;;;;;;;;5042548;28;20399;-84
2023/09/02 07:01:18;;;;;;;2.20;1.30;;;;;;;;;;5061029;28;20037;-84
2023/09/02 07:03:44;;;;;;;1.95;1.60;;;;;;;;;;5055104;28;20059;-83
2023/09/02 07:06:13;;;;;;;1.55;1.38;;;;;;;;;;5062505;28;20025;-84
2023/09/02 07:08:39;;;;;;;2.00;1.63;;;;;;;;;;5051285;28;20040;-84
2023/09/02 07:11:05;;;;;;;1.67;1.45;;;;;;;;;;5055891;28;20028;-84
2023/09/02 07:13:31;;;;;;;2.08;1.67;;;;;;;;;;5052036;28;20021;-84
2023/09/02 07:16:00;;;;;;;1.27;1.17;;;;;;;;;;5050758;28;20109;-84
2023/09/02 07:18:25;;;;;;;2.08;1.63;;;;;;;;;;5049222;28;20033;-84
2023/09/02 07:20:51;;;;;;;1.42;1.33;;;;;;;;;;5039677;28;20023;-84
2023/09/02 07:23:16;;;;;;;2.55;1.80;;;;;;;;;;5036672;28;20123;-84
2023/09/02 07:25:41;;;;;;;2.22;1.33;;;;;;;;;;5052316;28;20035;-84
2023/09/02 07:28:07;;;;;;;1.48;1.38;;;;;;;;;;5057546;28;20060;-83
2023/09/02 07:30:32;;;;;;;1.30;1.20;;;;;;;;;;5032461;28;20475;-84
2023/09/02 07:32:58;;;;;;;1.40;1.30;;;;;;;;;;5040283;28;20544;-84
2023/09/02 07:35:23;;;;;;;2.13;1.45;;;;;;;;;;5047196;28;20475;-83
2023/09/02 07:37:48;;;;;;;1.60;1.23;;;;;;;;;;5059074;28;20055;-84
2023/09/02 07:40:14;;;;;;;1.20;1.00;;;;;;;;;;5033997;28;20020;-84
2023/09/02 07:42:39;;;;;;;1.95;1.23;;;;;;;;;;5035596;28;20028;-84
2023/09/02 07:45:05;;;;;;;2.15;1.58;;;;;;;;;;5030311;28;20025;-85
2023/09/02 07:47:30;;;;;;;2.45;1.23;;;;;;;;;;5033188;28;20078;-85
2023/09/02 07:49:56;;;;;;;1.50;1.40;;;;;;;;;;5032125;28;20028;-84
2023/09/02 07:52:21;;;;;;;2.55;1.33;;;;;;;;;;5033165;28;20032;-84
2023/09/02 07:54:46;;;;;;;2.22;1.35;;;;;;;;;;5035764;28;20535;-84
2023/09/02 07:57:12;;;;;;;1.40;1.30;;;;;;;;;;5034305;28;20113;-84
2023/09/02 07:59:37;;;;;;;1.40;1.30;;;;;;;;;;5050663;28;20036;-84
2023/09/02 08:02:03;;;;;;;3.30;1.63;;;;;;;;;;5057959;28;20391;-84
2023/09/02 08:04:51;;;;;;;1.85;1.35;;;;;;;;;;5039238;28;20032;-86
2023/09/02 08:07:16;;;;;;;2.13;1.35;;;;;;;;;;5039351;28;20153;-84
2023/09/02 08:09:42;;;;;;;2.10;1.35;;;;;;;;;;5043518;28;20140;-84
2023/09/02 08:15:29;;;;;;;;;;;;;;;;;;5054904;28;20347;-84
2023/09/02 08:17:55;;;;;;;1.77;1.40;;;;;;;;;;5045744;28;20353;-84
2023/09/02 08:20:20;;;;;;;4.30;1.48;;;;;;;;;;5059565;28;20051;-83
2023/09/02 08:22:45;;;;;;;2.92;1.27;;;;;;;;;;5046306;28;20086;-84
2023/09/02 08:25:12;;;;;;;1.80;1.35;;;;;;;;;;5045959;28;20753;-84
2023/09/02 08:27:38;;;;;;;1.70;1.52;;;;;;;;;;5061874;28;20048;-84
2023/09/02 08:30:04;;;;;;;2.08;1.38;;;;;;;;;;5070241;28;20085;-84
2023/09/02 08:32:30;;;;;;;1.85;1.30;;;;;;;;;;5047139;28;20016;-83
2023/09/02 08:34:58;;;;;;;1.85;1.40;;;;;;;;;;5063599;28;20024;-87
2023/09/02 08:37:24;;;;;;;2.13;1.38;;;;;;;;;;5052029;28;20084;-83
2023/09/02 08:39:51;;;;;;;2.05;1.65;;;;;;;;;;5047792;28;20067;-83
2023/09/02 08:42:17;;;;;;;5.25;1.25;;;;;;;;;;5055119;28;20016;-85
2023/09/02 08:44:45;;;;;;;1.30;1.20;;;;;;;;;;5055042;28;20040;-82
2023/09/02 08:47:11;;;;;;;1.85;1.20;;;;;;;;;;5049055;28;20458;-82
2023/09/02 08:49:37;;;;;;;1.85;1.40;;;;;;;;;;5042261;28;20033;-85
2023/09/02 08:52:05;;;;;;;1.30;1.20;;;;;;;;;;5052598;28;20048;-82
2023/09/02 08:54:31;;;;;;;2.30;1.42;;;;;;;;;;5051339;28;20044;-81
2023/09/02 08:56:57;;;;;;;2.30;1.30;;;;;;;;;;5044656;28;20143;-84
2023/09/02 08:59:25;;;;;;;3.60;1.38;;;;;;;;;;5055905;28;20036;-82
2023/09/02 09:01:52;;;;;;;2.15;1.15;;;;;;;;;;5069624;28;20040;-84
2023/09/02 09:04:18;;;;;;;2.03;1.40;;;;;;;;;;5061235;28;20020;-85
2023/09/02 09:06:44;;;;;;;1.73;1.30;;;;;;;;;;5067188;28;20056;-85
2023/09/02 09:09:10;;;;;;;1.95;1.30;;;;;;;;;;5061317;28;20033;-85
2023/09/02 09:11:39;;;;;;;1.77;1.38;;;;;;;;;;5034352;28;20056;-84
2023/09/02 09:14:11;;;;;;;3.53;1.45;;;;;;;;;;5040549;28;20032;-85
2023/09/02 09:16:39;;;;;;;2.60;1.67;;;;;;;;;;5064072;28;20618;-86
2023/09/02 09:19:04;;;;;;;1.83;1.40;;;;;;;;;;5039147;28;20032;-87
2023/09/02 09:21:29;;;;;;;1.42;1.20;;;;;;;;;;5060216;28;20033;-85
2023/09/02 09:23:55;;;;;;;1.73;1.30;;;;;;;;;;5060432;28;20035;-86
2023/09/02 09:26:21;;;;;;;2.00;1.38;;;;;;;;;;5056594;28;20116;-85
2023/09/02 09:28:56;;;;;;;3.15;1.52;;;;;;;;;;5046840;28;20078;-86
2023/09/02 09:31:22;;;;;;;3.40;1.55;;;;;;;;;;5042128;28;20020;-85
2023/09/02 09:33:59;;;;;;;2.03;1.48;;;;;;;;;;5061796;28;20048;-86
2023/09/02 09:36:25;;;;;;;1.52;1.30;;;;;;;;;;5036217;28;20120;-84
2023/09/02 09:38:57;;;;;;;1.60;1.40;;;;;;;;;;5062625;28;20085;-84
2023/09/02 09:41:25;;;;;;;7.00;1.42;;;;;;;;;;5064316;28;20025;-84
2023/09/02 09:44:13;;;;;;;2.35;1.85;;;;;;;;;;5035718;28;20071;-85
2023/09/02 09:46:53;;;;;;;5.05;1.98;;;;;;;;;;5037100;28;20569;-83
2023/09/02 09:49:24;;;;;;;2.83;1.50;;;;;;;;;;5040477;28;20051;-84
2023/09/02 09:51:50;;;;;;;;;;;;;;;;;;5048798;28;20096;-84
2023/09/02 09:54:15;;;;;;;4.22;1.30;;;;;;;;;;5076569;28;19924;-84
2023/09/02 09:56:44;;;;;;;2.70;1.23;;;;;;;;;;5047709;28;20036;-85
2023/09/02 09:59:10;;;;;;;1.33;1.23;;;;;;;;;;5057779;28;20025;-85
2023/09/02 10:01:36;;;;;;;1.27;1.15;;;;;;;;;;5032556;28;20047;-85
2023/09/02 10:04:08;;;;;;;1.02;0.90;;;;;;;;;;5057587;28;20402;-87
2023/09/02 10:06:38;;;;;;;5.28;1.25;;;;;;;;;;5053710;28;20032;-84
2023/09/02 10:09:05;;;;;;;2.55;1.58;;;;;;;;;;5055160;28;20071;-85
2023/09/02 10:11:30;;;;;;;3.45;1.45;;;;;;;;;;5051723;28;20059;-84
2023/09/02 10:13:57;;;;;;;3.40;1.30;;;;;;;;;;5048308;28;20060;-83
2023/09/02 10:16:24;;;;;;;1.35;1.25;;;;;;;;;;5030804;28;20059;-83
2023/09/02 10:18:50;;;;;;;5.03;1.20;;;;;;;;;;5051120;28;20028;-83
2023/09/02 10:21:19;;;;;;;3.72;1.17;;;;;;;;;;5036589;28;20024;-83
2023/09/02 10:23:51;;;;;;;2.95;1.55;;;;;;;;;;5058207;28;20462;-82
2023/09/02 10:26:48;;;;;;;1.23;1.10;;;;;;;;;;5056910;28;20028;-82
2023/09/02 10:29:18;;;;;;;1.35;1.08;;;;;;;;;;5046869;28;20063;-83
2023/09/02 10:31:48;;;;;;;1.75;1.33;;;;;;;;;;5054316;28;20044;-82
2023/09/02 10:34:21;;;;;;;1.65;1.30;;;;;;;;;;5050744;28;20052;-81
2023/09/02 10:36:55;;;;;;;1.50;1.05;;;;;;;;;;5039462;28;20040;-82
2023/09/02 10:39:37;;;;;;;5.88;1.17;;;;;;;;;;5060433;28;20024;-81
2023/09/02 10:42:03;;;;;;;1.13;1.00;;;;;;;;;;5051474;28;20025;-82
2023/09/02 10:44:29;;;;;;;1.30;1.20;;;;;;;;;;5056965;28;20031;-83
2023/09/02 10:46:55;;;;;;;1.50;1.10;;;;;;;;;;5051625;28;20498;-82
2023/09/02 10:49:22;;;;;;;1.67;1.15;;;;;;;;;;5052625;28;20140;-82
2023/09/02 10:51:47;;;;;;;1.90;0.98;;;;;;;;;;5035815;28;20064;-83
2023/09/02 10:54:12;;;;;;;1.50;1.02;;;;;;;;;;5057326;28;20121;-83
2023/09/02 10:56:38;;;;;;;1.65;1.40;;;;;;;;;;5050481;28;20029;-82
2023/09/02 10:59:05;;;;;;;1.17;0.98;;;;;;;;;;5051802;28;20031;-82
2023/09/02 11:01:47;;;;;;;1.40;0.90;;;;;;;;;;5054994;28;20048;-83
2023/09/02 11:04:13;;;;;;;2.17;1.20;;;;;;;;;;5059153;28;20032;-83
2023/09/02 11:07:16;;;;;;;2.15;1.35;;;;;;;;;;5054020;28;20090;-83
2023/09/02 11:09:55;;;;;;;1.25;1.15;;;;;;;;;;5029602;28;20061;-83
2023/09/02 11:12:21;;;;;;;1.13;1.00;;;;;;;;;;5049110;28;20112;-83
2023/09/02 11:15:08;;;;;;;1.10;1.00;;;;;;;;;;5051972;28;20172;-83
2023/09/02 11:17:40;;;;;;;1.80;1.10;;;;;;;;;;5052212;28;20403;-82
2023/09/02 11:20:27;;;;;;;1.73;1.17;;;;;;;;;;5052419;28;20029;-82
2023/09/02 11:22:59;;;;;;;1.25;0.80;;;;;;;;;;5050424;28;20033;-83
2023/09/02 11:25:28;;;;;;;1.50;1.27;;;;;;;;;;5054778;28;20821;-82
2023/09/02 11:27:55;;;;;;;1.77;1.20;;;;;;;;;;5051053;28;20040;-82
2023/09/02 11:30:24;;;;;;;0.90;0.90;;;;;;;;;;5034869;28;20048;-82
2023/09/02 11:32:50;;;;;;;1.17;0.90;;;;;;;;;;5058853;28;20086;-82
2023/09/02 11:35:22;;;;;;;1.15;1.05;;;;;;;;;;5067324;28;20052;-82
2023/09/02 11:37:48;;;;;;;2.33;0.90;;;;;;;;;;5058342;28;20021;-82
2023/09/02 11:40:13;;;;;;;1.58;1.15;;;;;;;;;;5037310;28;20039;-82
2023/09/02 11:43:00;;;;;;;1.15;1.05;;;;;;;;;;5046941;28;20025;-82
2023/09/02 11:45:28;;;;;;;1.13;1.02;;;;;;;;;;5045852;28;20041;-82
2023/09/02 11:47:53;;;;;;;0.70;0.70;;;;;;;;;;5058216;28;20022;-82
2023/09/02 11:50:20;;;;;;;1.23;0.90;;;;;;;;;;5052895;28;20450;-83
2023/09/02 11:52:47;;;;;;;1.10;1.00;;;;;;;;;;5051003;28;20108;-82
2023/09/02 11:55:16;;;;;;;0.80;0.80;;;;;;;;;;5030925;28;21277;-82
2023/09/02 11:57:43;;;;;;;2.00;0.80;;;;;;;;;;5059290;28;20032;-83
2023/09/02 12:00:17;;;;;;;1.50;1.00;;;;;;;;;;5030775;28;20038;-82
2023/09/02 12:02:42;;;;;;;1.65;1.10;;;;;;;;;;5056650;28;20054;-82
2023/09/02 12:05:08;;;;;;;2.63;1.25;;;;;;;;;;5059386;28;21203;-83
2023/09/02 12:07:36;;;;;;;4.72;1.10;;;;;;;;;;5045904;28;20029;-83
2023/09/02 12:10:05;;;;;;;0.90;0.77;;;;;;;;;;5056544;28;20021;-83
2023/09/02 12:12:31;;;;;;;1.10;1.00;;;;;;;;;;5054874;28;20031;-82
2023/09/02 12:14:57;;;;;;;0.88;0.85;;;;;;;;;;5061697;28;20029;-81
2023/09/02 12:17:22;;;;;;;1.10;0.93;;;;;;;;;;5056780;28;20039;-82
2023/09/02 12:19:48;;;;;;;2.03;1.08;;;;;;;;;;5060842;28;20029;-82
2023/09/02 12:22:14;;;;;;;1.27;1.13;;;;;;;;;;5055190;28;20479;-81
2023/09/02 12:24:39;;;;;;;0.60;0.60;;;;;;;;;;5037750;28;20170;-80
2023/09/02 12:27:05;;;;;;;1.15;1.02;;;;;;;;;;5063093;28;20432;-81
2023/09/02 12:29:30;;;;;;;0.98;0.98;;;;;;;;;;5042763;28;20017;-81
2023/09/02 12:31:58;;;;;;;1.13;0.90;;;;;;;;;;5062805;28;20020;-81
2023/09/02 12:34:24;;;;;;;1.10;0.95;;;;;;;;;;5041158;28;20036;-81
2023/09/02 12:36:49;;;;;;;1.25;0.93;;;;;;;;;;5066719;28;20039;-81
2023/09/02 12:39:27;;;;;;;1.27;1.00;;;;;;;;;;5049674;28;20033;-81
2023/09/02 12:41:53;;;;;;;1.88;1.20;;;;;;;;;;5064305;28;20147;-81
2023/09/02 12:44:19;;;;;;;1.88;1.23;;;;;;;;;;5064920;28;20115;-81
2023/09/02 12:46:48;;;;;;;1.40;1.30;;;;;;;;;;5060430;28;20025;-80
2023/09/02 12:49:16;;;;;;;1.42;1.10;;;;;;;;;;5062716;28;20663;-81
2023/09/02 12:51:43;;;;;;;1.23;1.13;;;;;;;;;;5045093;28;20028;-80
2023/09/02 12:54:13;;;;;;;2.20;1.27;;;;;;;;;;5063906;28;20803;-81
2023/09/02 12:56:39;;;;;;;1.70;1.27;;;;;;;;;;5044497;28;20090;-80
2023/09/02 12:59:05;;;;;;;1.98;1.10;;;;;;;;;;5063577;28;20155;-80
2023/09/02 13:01:31;;;;;;;2.47;1.30;;;;;;;;;;5044143;28;20025;-81
2023/09/02 13:04:00;;;;;;;1.08;0.98;;;;;;;;;;5075525;28;20039;-80
2023/09/02 13:06:27;;;;;;;1.13;1.02;;;;;;;;;;5061378;28;20060;-81
2023/09/02 13:08:54;;;;;;;1.25;1.00;;;;;;;;;;5062840;28;20024;-80
2023/09/02 13:11:19;;;;;;;1.23;0.98;;;;;;;;;;5038477;28;20071;-80
2023/09/02 13:13:45;;;;;;;0.70;0.70;;;;;;;;;;5064087;28;20052;-80
2023/09/02 13:16:10;;;;;;;2.03;0.90;;;;;;;;;;5045517;28;20032;-81
2023/09/02 13:18:35;;;;;;;1.30;1.20;;;;;;;;;;5045004;28;20038;-80
2023/09/02 13:21:01;;;;;;;1.05;0.95;;;;;;;;;;5060590;28;20033;-80
2023/09/02 13:23:30;;;;;;;1.77;0.88;;;;;;;;;;5066371;28;20041;-80
2023/09/02 13:25:55;;;;;;;1.20;1.10;;;;;;;;;;5045764;28;20036;-80
2023/09/02 13:28:28;;;;;;;0.90;0.90;;;;;;;;;;5047178;28;20032;-80
2023/09/02 13:30:53;;;;;;;0.93;0.93;;;;;;;;;;5060063;28;20056;-80
2023/09/02 13:33:19;;;;;;;0.90;0.85;;;;;;;;;;5063459;28;20578;-79
2023/09/02 13:35:44;;;;;;;1.55;1.15;;;;;;;;;;5064178;28;20040;-79
2023/09/02 13:38:10;;;;;;;0.88;0.85;;;;;;;;;;5058633;28;20126;-79
2023/09/02 13:40:36;;;;;;;1.40;1.02;;;;;;;;;;5057000;28;20047;-82
2023/09/02 13:43:06;;;;;;;1.23;1.10;;;;;;;;;;5057943;28;20022;-79
2023/09/02 13:45:35;;;;;;;1.10;1.00;;;;;;;;;;5060576;28;20033;-82
2023/09/02 13:48:00;;;;;;;1.40;0.80;;;;;;;;;;5056134;28;20127;-82
2023/09/02 13:50:26;;;;;;;1.83;1.15;;;;;;;;;;5063295;28;20032;-81
2023/09/02 13:52:54;;;;;;;1.50;1.00;;;;;;;;;;5063758;28;20029;-81
2023/09/02 13:55:21;;;;;;;1.83;1.00;;;;;;;;;;5057006;28;20526;-81
2023/09/02 13:57:47;;;;;;;1.23;1.17;;;;;;;;;;5058043;28;20056;-81
2023/09/02 14:00:37;;;;;;;1.10;1.00;;;;;;;;;;5045419;28;20147;-81
2023/09/02 14:03:06;;;;;;;1.33;1.08;;;;;;;;;;5049521;28;20044;-81
2023/09/02 14:05:32;;;;;;;0.80;0.80;;;;;;;;;;5061892;28;20306;-80
2023/09/02 14:08:01;;;;;;;1.65;1.20;;;;;;;;;;5042388;28;20078;-80
2023/09/02 14:10:29;;;;;;;1.52;1.40;;;;;;;;;;5063748;28;20028;-79
2023/09/02 14:12:56;;;;;;;1.40;1.00;;;;;;;;;;5053732;28;20024;-81
2023/09/02 14:15:21;;;;;;;1.15;0.80;;;;;;;;;;5058299;28;20035;-81
2023/09/02 14:17:47;;;;;;;1.05;0.98;;;;;;;;;;5061864;28;20111;-80
2023/09/02 14:20:12;;;;;;;2.50;1.02;;;;;;;;;;5063239;28;20037;-81
2023/09/02 14:22:38;;;;;;;1.25;0.82;;;;;;;;;;5061580;28;21138;-80
2023/09/02 14:25:04;;;;;;;1.70;1.10;;;;;;;;;;5045851;28;20148;-80
2023/09/02 14:27:29;;;;;;;1.00;1.00;;;;;;;;;;5065641;28;20072;-80
2023/09/02 14:29:54;;;;;;;1.10;1.00;;;;;;;;;;5063623;28;20087;-80
2023/09/02 14:32:19;;;;;;;1.92;1.15;;;;;;;;;;5072661;28;20077;-81
2023/09/02 14:34:46;;;;;;;1.77;1.20;;;;;;;;;;5066232;28;20036;-80
2023/09/02 14:37:12;;;;;;;1.48;0.98;;;;;;;;;;5069808;28;20033;-80
2023/09/02 14:39:37;;;;;;;1.10;1.00;;;;;;;;;;5069083;28;20044;-80
2023/09/02 14:42:02;;;;;;;1.30;1.20;;;;;;;;;;5043721;28;20059;-80
2023/09/02 14:44:32;;;;;;;1.35;0.93;;;;;;;;;;5065659;28;20608;-80
2023/09/02 14:46:59;;;;;;;1.75;1.00;;;;;;;;;;5036085;28;20030;-80